sensor_id;sensor_type;location;lat;lon;timestamp;temperature;humidity
6252;DHT22;3159;52.414;9.784;2023-09-07T00:01:33;22.40;99.90
6252;DHT22;3159;52.414;9.784;2023-09-07T00:04:01;22.40;99.90
6252;DHT22;3159;52.414;9.784;2023-09-07T00:06:28;22.30;99.90
6252;DHT22;3159;52.414;9.784;2023-09-07T00:08:55;22.30;99.90
6252;DHT22;3159;52.414;9.784;2023-09-07T00:11:22;22.30;99.90
6252;DHT22;3159;52.414;9.784;2023-09-07T00:13:49;22.20;99.90
6252;DHT22;3159;52.414;9.784;2023-09-07T00:16:16;22.20;99.90
6252;DHT22;3159;52.414;9.784;2023-09-07T00:18:43;22.20;99.90
6252;DHT22;3159;52.414;9.784;2023-09-07T00:21:12;22.10;99.90
6252;DHT22;3159;52.414;9.784;2023-09-07T00:23:39;22.10;99.90
6252;DHT22;3159;52.414;9.784;2023-09-07T00:26:06;22.10;99.90
6252;DHT22;3159;52.414;9.784;2023-09-07T00:28:33;22.10;99.90
6252;DHT22;3159;52.414;9.784;2023-09-07T00:31:01;22.00;99.90
6252;DHT22;3159;52.414;9.784;2023-09-07T00:33:29;22.00;99.90
6252;DHT22;3159;52.414;9.784;2023-09-07T00:35:56;22.00;99.90
6252;DHT22;3159;52.414;9.784;2023-09-07T00:38:24;22.00;99.90
6252;DHT22;3159;52.414;9.784;2023-09-07T00:40:51;21.90;99.90
6252;DHT22;3159;52.414;9.784;2023-09-07T00:43:18;21.90;99.90
6252;DHT22;3159;52.414;9.784;2023-09-07T00:45:45;21.90;99.90
6252;DHT22;3159;52.414;9.784;2023-09-07T00:48:12;21.80;99.90
6252;DHT22;3159;52.414;9.784;2023-09-07T00:50:40;21.80;99.90
6252;DHT22;3159;52.414;9.784;2023-09-07T00:53:07;21.80;99.90
6252;DHT22;3159;52.414;9.784;2023-09-07T00:55:36;21.80;99.90
6252;DHT22;3159;52.414;9.784;2023-09-07T00:58:04;21.70;99.90
6252;DHT22;3159;52.414;9.784;2023-09-07T01:00:32;21.70;99.90
6252;DHT22;3159;52.414;9.784;2023-09-07T01:02:59;21.60;99.90
6252;DHT22;3159;52.414;9.784;2023-09-07T01:05:32;21.60;99.90
6252;DHT22;3159;52.414;9.784;2023-09-07T01:08:10;21.60;99.90
6252;DHT22;3159;52.414;9.784;2023-09-07T01:10:38;21.60;99.90
6252;DHT22;3159;52.414;9.784;2023-09-07T01:13:05;21.60;99.90
6252;DHT22;3159;52.414;9.784;2023-09-07T01:15:32;21.50;99.90
6252;DHT22;3159;52.414;9.784;2023-09-07T01:18:00;21.50;99.90
6252;DHT22;3159;52.414;9.784;2023-09-07T01:20:29;21.50;99.90
6252;DHT22;3159;52.414;9.784;2023-09-07T01:22:58;21.50;99.90
6252;DHT22;3159;52.414;9.784;2023-09-07T01:25:25;21.50;99.90
6252;DHT22;3159;52.414;9.784;2023-09-07T01:27:53;21.40;99.90
6252;DHT22;3159;52.414;9.784;2023-09-07T01:30:20;21.40;99.90
6252;DHT22;3159;52.414;9.784;2023-09-07T01:32:47;21.40;99.90
6252;DHT22;3159;52.414;9.784;2023-09-07T01:35:15;21.40;99.90
6252;DHT22;3159;52.414;9.784;2023-09-07T01:37:43;21.30;99.90
6252;DHT22;3159;52.414;9.784;2023-09-07T01:40:12;21.30;99.90
6252;DHT22;3159;52.414;9.784;2023-09-07T01:42:39;21.30;99.90
6252;DHT22;3159;52.414;9.784;2023-09-07T01:45:07;21.20;99.90
6252;DHT22;3159;52.414;9.784;2023-09-07T01:47:35;21.20;99.90
6252;DHT22;3159;52.414;9.784;2023-09-07T01:50:02;21.20;99.90
6252;DHT22;3159;52.414;9.784;2023-09-07T01:52:29;21.10;99.90
6252;DHT22;3159;52.414;9.784;2023-09-07T01:54:56;21.10;99.90
6252;DHT22;3159;52.414;9.784;2023-09-07T01:57:27;21.00;99.90
6252;DHT22;3159;52.414;9.784;2023-09-07T01:59:54;21.00;99.90
6252;DHT22;3159;52.414;9.784;2023-09-07T02:02:21;21.00;99.90
6252;DHT22;3159;52.414;9.784;2023-09-07T02:04:48;21.00;99.90
6252;DHT22;3159;52.414;9.784;2023-09-07T02:07:16;21.10;99.90
6252;DHT22;3159;52.414;9.784;2023-09-07T02:09:43;21.00;99.90
6252;DHT22;3159;52.414;9.784;2023-09-07T02:12:10;20.90;99.90
6252;DHT22;3159;52.414;9.784;2023-09-07T02:14:38;20.90;99.90
6252;DHT22;3159;52.414;9.784;2023-09-07T02:17:05;20.80;99.90
6252;DHT22;3159;52.414;9.784;2023-09-07T02:19:32;20.80;99.90
6252;DHT22;3159;52.414;9.784;2023-09-07T02:22:00;20.90;99.90
6252;DHT22;3159;52.414;9.784;2023-09-07T02:24:28;20.90;99.90
6252;DHT22;3159;52.414;9.784;2023-09-07T02:26:55;20.90;99.90
6252;DHT22;3159;52.414;9.784;2023-09-07T02:29:23;20.90;99.90
6252;DHT22;3159;52.414;9.784;2023-09-07T02:31:52;20.90;99.90
6252;DHT22;3159;52.414;9.784;2023-09-07T02:34:19;20.90;99.90
6252;DHT22;3159;52.414;9.784;2023-09-07T02:36:46;20.90;99.90
6252;DHT22;3159;52.414;9.784;2023-09-07T02:39:13;20.90;99.90
6252;DHT22;3159;52.414;9.784;2023-09-07T02:41:39;20.90;99.90
6252;DHT22;3159;52.414;9.784;2023-09-07T02:44:07;20.90;99.90
6252;DHT22;3159;52.414;9.784;2023-09-07T02:46:33;20.80;99.90
6252;DHT22;3159;52.414;9.784;2023-09-07T02:49:02;20.80;99.90
6252;DHT22;3159;52.414;9.784;2023-09-07T02:51:29;20.80;99.90
6252;DHT22;3159;52.414;9.784;2023-09-07T02:53:56;20.80;99.90
6252;DHT22;3159;52.414;9.784;2023-09-07T02:56:23;20.70;99.90
6252;DHT22;3159;52.414;9.784;2023-09-07T02:58:50;20.70;99.90
6252;DHT22;3159;52.414;9.784;2023-09-07T03:01:17;20.70;99.90
6252;DHT22;3159;52.414;9.784;2023-09-07T03:03:46;20.70;99.90
6252;DHT22;3159;52.414;9.784;2023-09-07T03:06:15;20.70;99.90
6252;DHT22;3159;52.414;9.784;2023-09-07T03:08:42;20.60;99.90
6252;DHT22;3159;52.414;9.784;2023-09-07T03:11:11;20.60;99.90
6252;DHT22;3159;52.414;9.784;2023-09-07T03:13:39;20.60;99.90
6252;DHT22;3159;52.414;9.784;2023-09-07T03:16:06;20.50;99.90
6252;DHT22;3159;52.414;9.784;2023-09-07T03:18:33;20.50;99.90
6252;DHT22;3159;52.414;9.784;2023-09-07T03:21:01;20.50;99.90
6252;DHT22;3159;52.414;9.784;2023-09-07T03:23:30;20.50;99.90
6252;DHT22;3159;52.414;9.784;2023-09-07T03:25:58;20.50;99.90
6252;DHT22;3159;52.414;9.784;2023-09-07T03:28:25;20.50;99.90
6252;DHT22;3159;52.414;9.784;2023-09-07T03:30:53;20.40;99.90
6252;DHT22;3159;52.414;9.784;2023-09-07T03:33:20;20.40;99.90
6252;DHT22;3159;52.414;9.784;2023-09-07T03:35:47;20.40;99.90
6252;DHT22;3159;52.414;9.784;2023-09-07T03:38:14;20.40;99.90
6252;DHT22;3159;52.414;9.784;2023-09-07T03:40:42;20.30;99.90
6252;DHT22;3159;52.414;9.784;2023-09-07T03:43:10;20.20;99.90
6252;DHT22;3159;52.414;9.784;2023-09-07T03:45:37;20.20;99.90
6252;DHT22;3159;52.414;9.784;2023-09-07T03:48:05;20.20;99.90
6252;DHT22;3159;52.414;9.784;2023-09-07T03:50:33;20.20;99.90
6252;DHT22;3159;52.414;9.784;2023-09-07T03:53:01;20.00;99.90
6252;DHT22;3159;52.414;9.784;2023-09-07T03:55:29;19.80;99.90
6252;DHT22;3159;52.414;9.784;2023-09-07T03:57:57;19.90;99.90
6252;DHT22;3159;52.414;9.784;2023-09-07T04:00:24;19.70;99.90
6252;DHT22;3159;52.414;9.784;2023-09-07T04:02:51;19.80;99.90
6252;DHT22;3159;52.414;9.784;2023-09-07T04:05:18;19.80;99.90
6252;DHT22;3159;52.414;9.784;2023-09-07T04:07:45;19.70;99.90
6252;DHT22;3159;52.414;9.784;2023-09-07T04:10:12;19.70;99.90
6252;DHT22;3159;52.414;9.784;2023-09-07T04:12:39;19.60;99.90
6252;DHT22;3159;52.414;9.784;2023-09-07T04:15:09;19.70;99.90
6252;DHT22;3159;52.414;9.784;2023-09-07T04:17:37;19.70;99.90
6252;DHT22;3159;52.414;9.784;2023-09-07T04:20:07;19.80;99.90
6252;DHT22;3159;52.414;9.784;2023-09-07T04:22:37;19.60;99.90
6252;DHT22;3159;52.414;9.784;2023-09-07T04:25:05;19.70;99.90
6252;DHT22;3159;52.414;9.784;2023-09-07T04:27:33;19.80;99.90
6252;DHT22;3159;52.414;9.784;2023-09-07T04:30:00;19.80;99.90
6252;DHT22;3159;52.414;9.784;2023-09-07T04:32:29;19.90;99.90
6252;DHT22;3159;52.414;9.784;2023-09-07T04:34:56;19.80;99.90
6252;DHT22;3159;52.414;9.784;2023-09-07T04:37:25;19.80;99.90
6252;DHT22;3159;52.414;9.784;2023-09-07T04:39:52;19.80;99.90
6252;DHT22;3159;52.414;9.784;2023-09-07T04:42:19;19.80;99.90
6252;DHT22;3159;52.414;9.784;2023-09-07T04:44:47;19.80;99.90
6252;DHT22;3159;52.414;9.784;2023-09-07T04:47:14;19.80;99.90
6252;DHT22;3159;52.414;9.784;2023-09-07T04:49:42;19.80;99.90
6252;DHT22;3159;52.414;9.784;2023-09-07T04:52:09;19.80;99.90
6252;DHT22;3159;52.414;9.784;2023-09-07T04:54:36;19.80;99.90
6252;DHT22;3159;52.414;9.784;2023-09-07T04:57:03;19.70;99.90
6252;DHT22;3159;52.414;9.784;2023-09-07T04:59:30;19.70;99.90
6252;DHT22;3159;52.414;9.784;2023-09-07T05:01:59;19.70;99.90
6252;DHT22;3159;52.414;9.784;2023-09-07T05:04:27;19.70;99.90
6252;DHT22;3159;52.414;9.784;2023-09-07T05:06:56;19.70;99.90
6252;DHT22;3159;52.414;9.784;2023-09-07T05:09:23;19.70;99.90
6252;DHT22;3159;52.414;9.784;2023-09-07T05:11:51;19.70;99.90
6252;DHT22;3159;52.414;9.784;2023-09-07T05:14:18;19.70;99.90
6252;DHT22;3159;52.414;9.784;2023-09-07T05:16:45;19.70;99.90
6252;DHT22;3159;52.414;9.784;2023-09-07T05:19:11;19.70;99.90
6252;DHT22;3159;52.414;9.784;2023-09-07T05:21:38;19.70;99.90
6252;DHT22;3159;52.414;9.784;2023-09-07T05:24:07;19.70;99.90
6252;DHT22;3159;52.414;9.784;2023-09-07T05:26:34;19.70;99.90
6252;DHT22;3159;52.414;9.784;2023-09-07T05:29:01;19.60;99.90
6252;DHT22;3159;52.414;9.784;2023-09-07T05:31:28;19.60;99.90
6252;DHT22;3159;52.414;9.784;2023-09-07T05:33:56;19.60;99.90
6252;DHT22;3159;52.414;9.784;2023-09-07T05:36:23;19.60;99.90
6252;DHT22;3159;52.414;9.784;2023-09-07T05:38:50;19.70;99.90
6252;DHT22;3159;52.414;9.784;2023-09-07T05:41:18;19.70;99.90
6252;DHT22;3159;52.414;9.784;2023-09-07T05:43:45;19.70;99.90
6252;DHT22;3159;52.414;9.784;2023-09-07T05:46:12;19.70;99.90
6252;DHT22;3159;52.414;9.784;2023-09-07T05:48:39;19.70;99.90
6252;DHT22;3159;52.414;9.784;2023-09-07T05:51:06;19.70;99.90
6252;DHT22;3159;52.414;9.784;2023-09-07T05:53:33;19.70;99.90
6252;DHT22;3159;52.414;9.784;2023-09-07T05:56:01;19.80;99.90
6252;DHT22;3159;52.414;9.784;2023-09-07T05:58:31;19.80;99.90
6252;DHT22;3159;52.414;9.784;2023-09-07T06:00:57;19.80;99.90
6252;DHT22;3159;52.414;9.784;2023-09-07T06:03:24;19.80;99.90
6252;DHT22;3159;52.414;9.784;2023-09-07T06:05:51;19.90;99.90
6252;DHT22;3159;52.414;9.784;2023-09-07T06:08:18;19.90;99.90
6252;DHT22;3159;52.414;9.784;2023-09-07T06:10:45;19.90;99.90
6252;DHT22;3159;52.414;9.784;2023-09-07T06:13:12;19.80;99.90
6252;DHT22;3159;52.414;9.784;2023-09-07T06:15:40;19.80;99.90
6252;DHT22;3159;52.414;9.784;2023-09-07T06:18:07;19.80;99.90
6252;DHT22;3159;52.414;9.784;2023-09-07T06:20:34;19.70;99.90
6252;DHT22;3159;52.414;9.784;2023-09-07T06:23:02;19.90;99.90
6252;DHT22;3159;52.414;9.784;2023-09-07T06:25:28;20.00;99.90
6252;DHT22;3159;52.414;9.784;2023-09-07T06:27:55;20.20;99.90
6252;DHT22;3159;52.414;9.784;2023-09-07T06:30:22;20.30;99.90
6252;DHT22;3159;52.414;9.784;2023-09-07T06:32:51;20.30;99.90
6252;DHT22;3159;52.414;9.784;2023-09-07T06:35:18;20.60;99.90
6252;DHT22;3159;52.414;9.784;2023-09-07T06:37:45;20.80;99.90
6252;DHT22;3159;52.414;9.784;2023-09-07T06:40:12;20.90;99.90
6252;DHT22;3159;52.414;9.784;2023-09-07T06:42:41;20.90;99.90
6252;DHT22;3159;52.414;9.784;2023-09-07T06:45:08;20.90;99.90
6252;DHT22;3159;52.414;9.784;2023-09-07T06:47:35;21.00;99.90
6252;DHT22;3159;52.414;9.784;2023-09-07T06:50:05;20.70;99.90
6252;DHT22;3159;52.414;9.784;2023-09-07T06:52:32;20.90;99.90
6252;DHT22;3159;52.414;9.784;2023-09-07T06:54:59;20.90;99.90
6252;DHT22;3159;52.414;9.784;2023-09-07T06:57:26;20.70;99.90
6252;DHT22;3159;52.414;9.784;2023-09-07T06:59:53;21.10;99.90
6252;DHT22;3159;52.414;9.784;2023-09-07T07:02:19;21.00;99.90
6252;DHT22;3159;52.414;9.784;2023-09-07T07:04:46;21.40;99.90
6252;DHT22;3159;52.414;9.784;2023-09-07T07:07:15;21.40;99.90
6252;DHT22;3159;52.414;9.784;2023-09-07T07:09:41;22.00;99.90
6252;DHT22;3159;52.414;9.784;2023-09-07T07:12:08;21.60;99.90
6252;DHT22;3159;52.414;9.784;2023-09-07T07:14:35;21.60;99.90
6252;DHT22;3159;52.414;9.784;2023-09-07T07:17:03;22.10;99.90
6252;DHT22;3159;52.414;9.784;2023-09-07T07:19:31;21.80;99.90
6252;DHT22;3159;52.414;9.784;2023-09-07T07:21:58;22.10;99.90
6252;DHT22;3159;52.414;9.784;2023-09-07T07:24:26;22.10;99.90
6252;DHT22;3159;52.414;9.784;2023-09-07T07:26:53;22.40;99.90
6252;DHT22;3159;52.414;9.784;2023-09-07T07:29:20;21.90;99.90
6252;DHT22;3159;52.414;9.784;2023-09-07T07:31:47;22.60;99.90
6252;DHT22;3159;52.414;9.784;2023-09-07T07:34:14;22.80;99.90
6252;DHT22;3159;52.414;9.784;2023-09-07T07:36:41;23.40;99.90
6252;DHT22;3159;52.414;9.784;2023-09-07T07:39:08;22.70;99.90
6252;DHT22;3159;52.414;9.784;2023-09-07T07:41:36;23.40;99.90
6252;DHT22;3159;52.414;9.784;2023-09-07T07:44:04;23.60;99.90
6252;DHT22;3159;52.414;9.784;2023-09-07T07:46:30;23.90;99.90
6252;DHT22;3159;52.414;9.784;2023-09-07T07:48:58;24.70;99.90
6252;DHT22;3159;52.414;9.784;2023-09-07T07:51:25;25.20;99.90
6252;DHT22;3159;52.414;9.784;2023-09-07T07:53:54;24.10;99.90
6252;DHT22;3159;52.414;9.784;2023-09-07T07:56:22;25.00;99.90
6252;DHT22;3159;52.414;9.784;2023-09-07T07:58:51;25.70;99.90
6252;DHT22;3159;52.414;9.784;2023-09-07T08:01:19;25.70;99.90
6252;DHT22;3159;52.414;9.784;2023-09-07T08:03:46;25.10;99.90
6252;DHT22;3159;52.414;9.784;2023-09-07T08:06:14;25.60;99.90
6252;DHT22;3159;52.414;9.784;2023-09-07T08:08:40;25.40;99.90
6252;DHT22;3159;52.414;9.784;2023-09-07T08:11:08;26.10;99.90
6252;DHT22;3159;52.414;9.784;2023-09-07T08:13:35;25.30;99.90
6252;DHT22;3159;52.414;9.784;2023-09-07T08:16:04;26.20;99.90
6252;DHT22;3159;52.414;9.784;2023-09-07T08:18:33;25.40;99.90
6252;DHT22;3159;52.414;9.784;2023-09-07T08:21:00;25.50;99.90
6252;DHT22;3159;52.414;9.784;2023-09-07T08:23:28;25.90;99.90
6252;DHT22;3159;52.414;9.784;2023-09-07T08:25:54;26.40;99.90
6252;DHT22;3159;52.414;9.784;2023-09-07T08:28:21;26.70;99.90
6252;DHT22;3159;52.414;9.784;2023-09-07T08:30:50;26.40;99.90
6252;DHT22;3159;52.414;9.784;2023-09-07T08:33:20;25.80;99.90
6252;DHT22;3159;52.414;9.784;2023-09-07T08:35:54;26.60;99.90
6252;DHT22;3159;52.414;9.784;2023-09-07T08:38:21;27.30;99.90
6252;DHT22;3159;52.414;9.784;2023-09-07T08:40:52;27.20;99.90
6252;DHT22;3159;52.414;9.784;2023-09-07T08:43:21;26.90;99.90
6252;DHT22;3159;52.414;9.784;2023-09-07T08:45:51;27.50;99.90
6252;DHT22;3159;52.414;9.784;2023-09-07T08:48:27;27.20;99.90
6252;DHT22;3159;52.414;9.784;2023-09-07T08:50:56;27.20;99.90
6252;DHT22;3159;52.414;9.784;2023-09-07T08:53:23;28.10;99.90
6252;DHT22;3159;52.414;9.784;2023-09-07T08:55:51;28.70;99.90
6252;DHT22;3159;52.414;9.784;2023-09-07T08:58:18;28.80;99.90
6252;DHT22;3159;52.414;9.784;2023-09-07T09:00:45;28.80;99.90
6252;DHT22;3159;52.414;9.784;2023-09-07T09:03:13;29.30;99.90
6252;DHT22;3159;52.414;9.784;2023-09-07T09:05:43;28.40;99.90
6252;DHT22;3159;52.414;9.784;2023-09-07T09:08:11;28.60;99.90
6252;DHT22;3159;52.414;9.784;2023-09-07T09:10:38;28.80;99.90
6252;DHT22;3159;52.414;9.784;2023-09-07T09:13:06;29.30;99.90
6252;DHT22;3159;52.414;9.784;2023-09-07T09:15:33;28.40;99.90
6252;DHT22;3159;52.414;9.784;2023-09-07T09:18:09;27.90;99.90
6252;DHT22;3159;52.414;9.784;2023-09-07T09:20:38;28.30;99.90
6252;DHT22;3159;52.414;9.784;2023-09-07T09:23:06;27.80;99.90
6252;DHT22;3159;52.414;9.784;2023-09-07T09:25:33;28.60;99.90
6252;DHT22;3159;52.414;9.784;2023-09-07T09:28:00;29.20;99.90
6252;DHT22;3159;52.414;9.784;2023-09-07T09:30:27;27.90;99.90
6252;DHT22;3159;52.414;9.784;2023-09-07T09:32:55;27.70;99.90
6252;DHT22;3159;52.414;9.784;2023-09-07T09:35:22;29.10;99.90
6252;DHT22;3159;52.414;9.784;2023-09-07T09:37:50;29.80;99.90
6252;DHT22;3159;52.414;9.784;2023-09-07T09:40:18;28.80;99.90
6252;DHT22;3159;52.414;9.784;2023-09-07T09:42:46;29.50;99.90
6252;DHT22;3159;52.414;9.784;2023-09-07T09:45:13;28.80;99.90
6252;DHT22;3159;52.414;9.784;2023-09-07T09:47:41;27.70;99.90
6252;DHT22;3159;52.414;9.784;2023-09-07T09:50:10;27.90;99.90
6252;DHT22;3159;52.414;9.784;2023-09-07T09:52:37;28.30;99.90
6252;DHT22;3159;52.414;9.784;2023-09-07T09:55:05;29.30;99.90
6252;DHT22;3159;52.414;9.784;2023-09-07T09:57:35;29.70;99.90
6252;DHT22;3159;52.414;9.784;2023-09-07T10:00:04;30.70;99.90
6252;DHT22;3159;52.414;9.784;2023-09-07T10:02:48;31.20;99.90
6252;DHT22;3159;52.414;9.784;2023-09-07T10:05:18;29.90;99.90
6252;DHT22;3159;52.414;9.784;2023-09-07T10:07:48;30.90;99.90
6252;DHT22;3159;52.414;9.784;2023-09-07T10:10:18;30.30;99.90
6252;DHT22;3159;52.414;9.784;2023-09-07T10:12:52;30.80;99.90
6252;DHT22;3159;52.414;9.784;2023-09-07T10:15:21;31.50;99.90
6252;DHT22;3159;52.414;9.784;2023-09-07T10:17:48;32.10;99.90
6252;DHT22;3159;52.414;9.784;2023-09-07T10:20:16;29.70;99.90
6252;DHT22;3159;52.414;9.784;2023-09-07T10:22:43;29.60;99.90
6252;DHT22;3159;52.414;9.784;2023-09-07T10:25:21;30.90;99.90
6252;DHT22;3159;52.414;9.784;2023-09-07T10:27:49;30.10;99.90
6252;DHT22;3159;52.414;9.784;2023-09-07T10:30:16;31.10;99.90
6252;DHT22;3159;52.414;9.784;2023-09-07T10:32:48;30.60;99.90
6252;DHT22;3159;52.414;9.784;2023-09-07T10:35:15;31.10;99.90
6252;DHT22;3159;52.414;9.784;2023-09-07T10:37:45;31.40;99.90
6252;DHT22;3159;52.414;9.784;2023-09-07T10:40:18;31.60;99.90
6252;DHT22;3159;52.414;9.784;2023-09-07T10:42:45;31.90;99.90
6252;DHT22;3159;52.414;9.784;2023-09-07T10:45:15;30.90;99.90
6252;DHT22;3159;52.414;9.784;2023-09-07T10:47:43;31.80;99.90
6252;DHT22;3159;52.414;9.784;2023-09-07T10:50:12;31.00;99.90
6252;DHT22;3159;52.414;9.784;2023-09-07T10:52:39;31.20;99.90
6252;DHT22;3159;52.414;9.784;2023-09-07T10:55:08;30.60;99.90
6252;DHT22;3159;52.414;9.784;2023-09-07T10:57:43;30.70;99.90
6252;DHT22;3159;52.414;9.784;2023-09-07T11:00:13;31.60;99.90
6252;DHT22;3159;52.414;9.784;2023-09-07T11:02:41;31.00;99.90
6252;DHT22;3159;52.414;9.784;2023-09-07T11:05:09;30.90;99.90
6252;DHT22;3159;52.414;9.784;2023-09-07T11:07:36;30.30;99.90
6252;DHT22;3159;52.414;9.784;2023-09-07T11:10:06;30.00;99.90
6252;DHT22;3159;52.414;9.784;2023-09-07T11:12:37;31.20;99.90
6252;DHT22;3159;52.414;9.784;2023-09-07T11:15:07;31.90;99.90
6252;DHT22;3159;52.414;9.784;2023-09-07T11:17:38;32.50;99.90
6252;DHT22;3159;52.414;9.784;2023-09-07T11:20:07;32.20;99.90
6252;DHT22;3159;52.414;9.784;2023-09-07T11:22:36;31.80;99.90
6252;DHT22;3159;52.414;9.784;2023-09-07T11:25:06;32.10;99.90
6252;DHT22;3159;52.414;9.784;2023-09-07T11:27:33;30.90;99.90
6252;DHT22;3159;52.414;9.784;2023-09-07T11:30:01;31.10;99.90
6252;DHT22;3159;52.414;9.784;2023-09-07T11:32:34;31.90;99.90
6252;DHT22;3159;52.414;9.784;2023-09-07T11:35:03;31.80;99.90
6252;DHT22;3159;52.414;9.784;2023-09-07T11:37:33;31.80;99.90
6252;DHT22;3159;52.414;9.784;2023-09-07T11:40:00;30.80;99.90
6252;DHT22;3159;52.414;9.784;2023-09-07T11:42:29;31.00;99.90
6252;DHT22;3159;52.414;9.784;2023-09-07T11:44:56;31.90;99.90
6252;DHT22;3159;52.414;9.784;2023-09-07T11:47:23;31.70;99.90
6252;DHT22;3159;52.414;9.784;2023-09-07T11:49:50;31.70;99.90
6252;DHT22;3159;52.414;9.784;2023-09-07T11:52:21;31.60;99.90
6252;DHT22;3159;52.414;9.784;2023-09-07T11:54:48;30.50;99.90
6252;DHT22;3159;52.414;9.784;2023-09-07T11:57:15;32.20;99.90
6252;DHT22;3159;52.414;9.784;2023-09-07T11:59:42;31.70;99.90
6252;DHT22;3159;52.414;9.784;2023-09-07T12:02:09;31.90;99.90
6252;DHT22;3159;52.414;9.784;2023-09-07T12:04:40;31.90;99.90
6252;DHT22;3159;52.414;9.784;2023-09-07T12:07:07;31.60;99.90
6252;DHT22;3159;52.414;9.784;2023-09-07T12:09:35;31.90;99.90
6252;DHT22;3159;52.414;9.784;2023-09-07T12:12:03;31.30;99.90
6252;DHT22;3159;52.414;9.784;2023-09-07T12:14:30;31.00;99.90
6252;DHT22;3159;52.414;9.784;2023-09-07T12:16:57;31.90;99.90
6252;DHT22;3159;52.414;9.784;2023-09-07T12:19:25;31.90;99.90
6252;DHT22;3159;52.414;9.784;2023-09-07T12:21:52;31.70;99.90
6252;DHT22;3159;52.414;9.784;2023-09-07T12:24:19;31.90;99.90
6252;DHT22;3159;52.414;9.784;2023-09-07T12:26:47;31.00;99.90
6252;DHT22;3159;52.414;9.784;2023-09-07T12:29:14;31.60;99.90
6252;DHT22;3159;52.414;9.784;2023-09-07T12:31:41;31.80;99.90
6252;DHT22;3159;52.414;9.784;2023-09-07T12:34:08;32.00;99.90
6252;DHT22;3159;52.414;9.784;2023-09-07T12:36:35;32.40;99.90
6252;DHT22;3159;52.414;9.784;2023-09-07T12:39:02;31.30;99.90
6252;DHT22;3159;52.414;9.784;2023-09-07T12:41:30;32.00;99.90
6252;DHT22;3159;52.414;9.784;2023-09-07T12:43:59;31.70;99.90
6252;DHT22;3159;52.414;9.784;2023-09-07T12:46:25;31.20;99.90
6252;DHT22;3159;52.414;9.784;2023-09-07T12:48:52;31.80;99.90
6252;DHT22;3159;52.414;9.784;2023-09-07T12:51:19;31.60;99.90
6252;DHT22;3159;52.414;9.784;2023-09-07T12:53:46;30.90;99.90
6252;DHT22;3159;52.414;9.784;2023-09-07T12:56:13;31.30;99.90
6252;DHT22;3159;52.414;9.784;2023-09-07T12:58:41;31.50;99.90
6252;DHT22;3159;52.414;9.784;2023-09-07T13:01:09;30.90;99.90
6252;DHT22;3159;52.414;9.784;2023-09-07T13:03:37;31.70;99.90
6252;DHT22;3159;52.414;9.784;2023-09-07T13:06:04;31.40;99.90
6252;DHT22;3159;52.414;9.784;2023-09-07T13:08:31;32.10;99.90
6252;DHT22;3159;52.414;9.784;2023-09-07T13:10:58;30.90;99.90
6252;DHT22;3159;52.414;9.784;2023-09-07T13:13:25;31.70;99.90
6252;DHT22;3159;52.414;9.784;2023-09-07T13:15:54;32.00;99.90
6252;DHT22;3159;52.414;9.784;2023-09-07T13:18:23;32.30;99.90
6252;DHT22;3159;52.414;9.784;2023-09-07T13:20:50;31.70;99.90
6252;DHT22;3159;52.414;9.784;2023-09-07T13:23:17;31.10;99.90
6252;DHT22;3159;52.414;9.784;2023-09-07T13:25:44;31.50;99.90
6252;DHT22;3159;52.414;9.784;2023-09-07T13:28:11;31.10;99.90
6252;DHT22;3159;52.414;9.784;2023-09-07T13:30:38;30.80;99.90
6252;DHT22;3159;52.414;9.784;2023-09-07T13:33:05;31.60;99.90
6252;DHT22;3159;52.414;9.784;2023-09-07T13:35:34;31.60;99.90
6252;DHT22;3159;52.414;9.784;2023-09-07T13:38:01;31.00;99.90
6252;DHT22;3159;52.414;9.784;2023-09-07T13:40:28;31.10;99.90
6252;DHT22;3159;52.414;9.784;2023-09-07T13:42:55;31.50;99.90
6252;DHT22;3159;52.414;9.784;2023-09-07T13:45:22;31.00;99.90
6252;DHT22;3159;52.414;9.784;2023-09-07T13:47:49;31.10;99.90
6252;DHT22;3159;52.414;9.784;2023-09-07T13:50:16;31.20;99.90
6252;DHT22;3159;52.414;9.784;2023-09-07T13:52:45;30.90;99.90
6252;DHT22;3159;52.414;9.784;2023-09-07T13:55:12;30.90;99.90
6252;DHT22;3159;52.414;9.784;2023-09-07T13:57:39;31.40;99.90
6252;DHT22;3159;52.414;9.784;2023-09-07T14:00:07;31.10;99.90
6252;DHT22;3159;52.414;9.784;2023-09-07T14:02:35;30.90;99.90
6252;DHT22;3159;52.414;9.784;2023-09-07T14:05:02;30.50;99.90
6252;DHT22;3159;52.414;9.784;2023-09-07T14:07:30;30.60;99.90
6252;DHT22;3159;52.414;9.784;2023-09-07T14:09:58;31.10;99.90
6252;DHT22;3159;52.414;9.784;2023-09-07T14:12:26;30.90;99.90
6252;DHT22;3159;52.414;9.784;2023-09-07T14:14:53;30.90;99.90
6252;DHT22;3159;52.414;9.784;2023-09-07T14:17:21;30.60;99.90
6252;DHT22;3159;52.414;9.784;2023-09-07T14:19:48;30.50;99.90
6252;DHT22;3159;52.414;9.784;2023-09-07T14:22:15;30.80;99.90
6252;DHT22;3159;52.414;9.784;2023-09-07T14:24:42;30.90;99.90
6252;DHT22;3159;52.414;9.784;2023-09-07T14:27:10;30.20;99.90
6252;DHT22;3159;52.414;9.784;2023-09-07T14:29:37;30.40;99.90
6252;DHT22;3159;52.414;9.784;2023-09-07T14:32:04;30.70;99.90
6252;DHT22;3159;52.414;9.784;2023-09-07T14:34:31;30.50;99.90
6252;DHT22;3159;52.414;9.784;2023-09-07T14:36:58;30.20;99.90
6252;DHT22;3159;52.414;9.784;2023-09-07T14:39:25;30.30;99.90
6252;DHT22;3159;52.414;9.784;2023-09-07T14:41:53;30.70;99.90
6252;DHT22;3159;52.414;9.784;2023-09-07T14:44:22;30.50;99.90
6252;DHT22;3159;52.414;9.784;2023-09-07T14:46:49;30.40;99.90
6252;DHT22;3159;52.414;9.784;2023-09-07T14:49:16;30.00;99.90
6252;DHT22;3159;52.414;9.784;2023-09-07T14:51:44;29.80;99.90
6252;DHT22;3159;52.414;9.784;2023-09-07T14:54:11;30.20;99.90
6252;DHT22;3159;52.414;9.784;2023-09-07T14:56:39;30.00;99.90
6252;DHT22;3159;52.414;9.784;2023-09-07T14:59:06;29.60;99.90
6252;DHT22;3159;52.414;9.784;2023-09-07T15:01:34;29.90;99.90
6252;DHT22;3159;52.414;9.784;2023-09-07T15:04:01;29.90;99.90
6252;DHT22;3159;52.414;9.784;2023-09-07T15:06:28;30.40;99.90
6252;DHT22;3159;52.414;9.784;2023-09-07T15:08:57;30.60;99.90
6252;DHT22;3159;52.414;9.784;2023-09-07T15:11:24;30.90;99.90
6252;DHT22;3159;52.414;9.784;2023-09-07T15:13:51;30.70;99.90
6252;DHT22;3159;52.414;9.784;2023-09-07T15:16:21;30.40;99.90
6252;DHT22;3159;52.414;9.784;2023-09-07T15:18:51;30.40;99.90
6252;DHT22;3159;52.414;9.784;2023-09-07T15:21:19;30.30;99.90
6252;DHT22;3159;52.414;9.784;2023-09-07T15:23:46;29.80;99.90
6252;DHT22;3159;52.414;9.784;2023-09-07T15:26:14;29.70;99.90
6252;DHT22;3159;52.414;9.784;2023-09-07T15:28:40;30.10;99.90
6252;DHT22;3159;52.414;9.784;2023-09-07T15:31:07;30.40;99.90
6252;DHT22;3159;52.414;9.784;2023-09-07T15:33:35;30.30;99.90
6252;DHT22;3159;52.414;9.784;2023-09-07T15:36:03;30.80;99.90
6252;DHT22;3159;52.414;9.784;2023-09-07T15:38:30;30.50;99.90
6252;DHT22;3159;52.414;9.784;2023-09-07T15:40:57;30.40;99.90
6252;DHT22;3159;52.414;9.784;2023-09-07T15:43:25;30.20;99.90
6252;DHT22;3159;52.414;9.784;2023-09-07T15:45:52;30.20;99.90
6252;DHT22;3159;52.414;9.784;2023-09-07T15:48:19;30.30;99.90
6252;DHT22;3159;52.414;9.784;2023-09-07T15:50:47;29.90;99.90
6252;DHT22;3159;52.414;9.784;2023-09-07T15:53:15;30.00;99.90
6252;DHT22;3159;52.414;9.784;2023-09-07T15:55:42;30.30;99.90
6252;DHT22;3159;52.414;9.784;2023-09-07T15:58:09;30.00;99.90
6252;DHT22;3159;52.414;9.784;2023-09-07T16:00:36;30.50;99.90
6252;DHT22;3159;52.414;9.784;2023-09-07T16:03:05;30.60;99.90
6252;DHT22;3159;52.414;9.784;2023-09-07T16:05:31;30.00;99.90